sensor_id;sensor_type;location;lat;lon;timestamp;P1;durP1;ratioP1;P2;durP2;ratioP2
25637;SDS011;13496;51.040;13.680;2023-03-13T00:01:44;3.57;;;3.27;;
25637;SDS011;13496;51.040;13.680;2023-03-13T00:06:47;3.57;;;3.27;;
25637;SDS011;13496;51.040;13.680;2023-03-13T00:11:49;3.90;;;3.60;;
25637;SDS011;13496;51.040;13.680;2023-03-13T00:16:51;3.57;;;3.27;;
25637;SDS011;13496;51.040;13.680;2023-03-13T00:21:52;3.30;;;3.00;;
25637;SDS011;13496;51.040;13.680;2023-03-13T00:26:54;3.57;;;3.27;;
25637;SDS011;13496;51.040;13.680;2023-03-13T00:31:56;4.73;;;3.17;;
25637;SDS011;13496;51.040;13.680;2023-03-13T00:36:57;3.40;;;3.10;;
25637;SDS011;13496;51.040;13.680;2023-03-13T00:41:59;3.80;;;2.97;;
25637;SDS011;13496;51.040;13.680;2023-03-13T00:47:04;3.10;;;2.83;;
25637;SDS011;13496;51.040;13.680;2023-03-13T00:52:07;3.63;;;3.23;;
25637;SDS011;13496;51.040;13.680;2023-03-13T00:57:09;3.20;;;2.90;;
25637;SDS011;13496;51.040;13.680;2023-03-13T01:02:10;3.50;;;2.80;;
25637;SDS011;13496;51.040;13.680;2023-03-13T01:07:12;3.50;;;3.00;;
25637;SDS011;13496;51.040;13.680;2023-03-13T01:12:14;3.00;;;2.70;;
25637;SDS011;13496;51.040;13.680;2023-03-13T01:17:15;2.80;;;2.60;;
25637;SDS011;13496;51.040;13.680;2023-03-13T01:22:17;4.07;;;2.97;;
25637;SDS011;13496;51.040;13.680;2023-03-13T01:27:19;2.80;;;2.37;;
25637;SDS011;13496;51.040;13.680;2023-03-13T01:32:20;2.57;;;2.30;;
25637;SDS011;13496;51.040;13.680;2023-03-13T01:37:22;3.33;;;2.73;;
25637;SDS011;13496;51.040;13.680;2023-03-13T01:42:23;2.77;;;2.57;;
25637;SDS011;13496;51.040;13.680;2023-03-13T01:47:25;3.10;;;2.80;;
25637;SDS011;13496;51.040;13.680;2023-03-13T01:52:43;2.73;;;2.53;;
25637;SDS011;13496;51.040;13.680;2023-03-13T01:57:57;2.57;;;2.37;;
25637;SDS011;13496;51.040;13.680;2023-03-13T02:03:00;2.43;;;2.23;;
25637;SDS011;13496;51.040;13.680;2023-03-13T02:08:11;2.60;;;2.40;;
25637;SDS011;13496;51.040;13.680;2023-03-13T02:13:19;2.70;;;2.50;;
25637;SDS011;13496;51.040;13.680;2023-03-13T02:18:21;2.90;;;2.57;;
25637;SDS011;13496;51.040;13.680;2023-03-13T02:23:26;2.33;;;2.13;;
25637;SDS011;13496;51.040;13.680;2023-03-13T02:28:42;2.87;;;1.97;;
25637;SDS011;13496;51.040;13.680;2023-03-13T02:33:47;2.63;;;2.43;;
25637;SDS011;13496;51.040;13.680;2023-03-13T02:38:54;2.50;;;2.30;;
25637;SDS011;13496;51.040;13.680;2023-03-13T02:43:59;2.93;;;2.40;;
25637;SDS011;13496;51.040;13.680;2023-03-13T02:49:09;2.90;;;2.27;;
25637;SDS011;13496;51.040;13.680;2023-03-13T02:54:26;2.33;;;2.07;;
25637;SDS011;13496;51.040;13.680;2023-03-13T02:59:32;2.43;;;2.23;;
25637;SDS011;13496;51.040;13.680;2023-03-13T03:04:35;2.57;;;2.37;;
25637;SDS011;13496;51.040;13.680;2023-03-13T03:09:36;2.23;;;2.03;;
25637;SDS011;13496;51.040;13.680;2023-03-13T03:14:43;2.33;;;2.13;;
25637;SDS011;13496;51.040;13.680;2023-03-13T03:19:45;2.50;;;2.30;;
25637;SDS011;13496;51.040;13.680;2023-03-13T03:24:47;2.43;;;2.23;;
25637;SDS011;13496;51.040;13.680;2023-03-13T03:29:49;2.10;;;1.90;;
25637;SDS011;13496;51.040;13.680;2023-03-13T03:34:51;2.40;;;2.10;;
25637;SDS011;13496;51.040;13.680;2023-03-13T03:39:53;2.37;;;2.00;;
25637;SDS011;13496;51.040;13.680;2023-03-13T03:44:55;2.03;;;1.83;;
25637;SDS011;13496;51.040;13.680;2023-03-13T03:49:57;1.80;;;1.70;;
25637;SDS011;13496;51.040;13.680;2023-03-13T03:54:59;2.43;;;2.00;;
25637;SDS011;13496;51.040;13.680;2023-03-13T04:00:03;2.33;;;1.83;;
25637;SDS011;13496;51.040;13.680;2023-03-13T04:05:14;2.70;;;2.03;;
25637;SDS011;13496;51.040;13.680;2023-03-13T04:10:16;2.07;;;1.83;;
25637;SDS011;13496;51.040;13.680;2023-03-13T04:15:20;2.00;;;1.80;;
25637;SDS011;13496;51.040;13.680;2023-03-13T04:20:21;2.37;;;2.13;;
25637;SDS011;13496;51.040;13.680;2023-03-13T04:25:23;1.80;;;1.70;;
25637;SDS011;13496;51.040;13.680;2023-03-13T04:30:27;2.10;;;1.90;;
25637;SDS011;13496;51.040;13.680;2023-03-13T04:35:46;2.53;;;1.92;;
25637;SDS011;13496;51.040;13.680;2023-03-13T04:40:58;2.27;;;1.83;;
25637;SDS011;13496;51.040;13.680;2023-03-13T04:46:11;1.90;;;1.70;;
25637;SDS011;13496;51.040;13.680;2023-03-13T04:51:22;1.80;;;1.70;;
25637;SDS011;13496;51.040;13.680;2023-03-13T04:56:43;2.77;;;1.70;;
25637;SDS011;13496;51.040;13.680;2023-03-13T05:02:00;2.77;;;2.20;;
25637;SDS011;13496;51.040;13.680;2023-03-13T05:07:27;4.10;;;1.90;;
25637;SDS011;13496;51.040;13.680;2023-03-13T05:13:01;1.80;;;1.60;;
25637;SDS011;13496;51.040;13.680;2023-03-13T05:18:11;2.23;;;1.50;;
25637;SDS011;13496;51.040;13.680;2023-03-13T05:23:22;2.80;;;1.80;;
25637;SDS011;13496;51.040;13.680;2023-03-13T05:28:44;2.80;;;1.80;;
25637;SDS011;13496;51.040;13.680;2023-03-13T05:34:00;2.13;;;1.53;;
25637;SDS011;13496;51.040;13.680;2023-03-13T05:39:28;2.40;;;1.77;;
25637;SDS011;13496;51.040;13.680;2023-03-13T05:44:48;2.43;;;1.87;;
25637;SDS011;13496;51.040;13.680;2023-03-13T05:50:18;2.13;;;1.63;;
25637;SDS011;13496;51.040;13.680;2023-03-13T05:55:41;2.07;;;1.60;;
25637;SDS011;13496;51.040;13.680;2023-03-13T06:00:54;2.63;;;1.77;;
25637;SDS011;13496;51.040;13.680;2023-03-13T06:06:13;1.93;;;1.60;;
25637;SDS011;13496;51.040;13.680;2023-03-13T06:11:20;2.83;;;1.90;;
25637;SDS011;13496;51.040;13.680;2023-03-13T06:16:21;2.20;;;1.70;;
25637;SDS011;13496;51.040;13.680;2023-03-13T06:21:24;2.80;;;1.93;;
25637;SDS011;13496;51.040;13.680;2023-03-13T06:26:26;2.50;;;1.50;;
25637;SDS011;13496;51.040;13.680;2023-03-13T06:31:27;1.73;;;1.60;;
25637;SDS011;13496;51.040;13.680;2023-03-13T06:36:29;2.83;;;1.70;;
25637;SDS011;13496;51.040;13.680;2023-03-13T06:41:31;2.30;;;1.70;;
25637;SDS011;13496;51.040;13.680;2023-03-13T06:46:33;2.20;;;1.40;;
25637;SDS011;13496;51.040;13.680;2023-03-13T06:51:35;2.30;;;1.50;;
25637;SDS011;13496;51.040;13.680;2023-03-13T06:56:36;1.70;;;1.60;;
25637;SDS011;13496;51.040;13.680;2023-03-13T07:01:38;1.93;;;1.73;;
25637;SDS011;13496;51.040;13.680;2023-03-13T07:06:40;2.17;;;1.70;;
25637;SDS011;13496;51.040;13.680;2023-03-13T07:11:42;3.10;;;1.80;;
25637;SDS011;13496;51.040;13.680;2023-03-13T07:16:44;2.60;;;1.60;;
25637;SDS011;13496;51.040;13.680;2023-03-13T07:21:46;1.70;;;1.57;;
25637;SDS011;13496;51.040;13.680;2023-03-13T07:26:49;1.87;;;1.37;;
25637;SDS011;13496;51.040;13.680;2023-03-13T07:31:51;3.53;;;1.83;;
25637;SDS011;13496;51.040;13.680;2023-03-13T07:36:53;2.33;;;1.60;;
25637;SDS011;13496;51.040;13.680;2023-03-13T07:41:54;1.40;;;1.30;;
25637;SDS011;13496;51.040;13.680;2023-03-13T07:46:59;1.97;;;1.60;;
25637;SDS011;13496;51.040;13.680;2023-03-13T07:52:01;2.10;;;1.50;;
25637;SDS011;13496;51.040;13.680;2023-03-13T07:57:03;1.97;;;1.40;;
25637;SDS011;13496;51.040;13.680;2023-03-13T08:02:05;1.83;;;1.40;;
25637;SDS011;13496;51.040;13.680;2023-03-13T08:07:07;2.10;;;1.50;;
25637;SDS011;13496;51.040;13.680;2023-03-13T08:12:09;1.73;;;1.30;;
25637;SDS011;13496;51.040;13.680;2023-03-13T08:17:11;1.63;;;1.50;;
25637;SDS011;13496;51.040;13.680;2023-03-13T08:22:12;1.53;;;1.43;;
25637;SDS011;13496;51.040;13.680;2023-03-13T08:27:14;1.37;;;1.27;;
25637;SDS011;13496;51.040;13.680;2023-03-13T08:32:16;1.57;;;1.40;;
25637;SDS011;13496;51.040;13.680;2023-03-13T08:37:18;2.10;;;1.60;;
25637;SDS011;13496;51.040;13.680;2023-03-13T08:42:20;2.77;;;1.40;;
25637;SDS011;13496;51.040;13.680;2023-03-13T08:47:21;2.20;;;1.40;;
25637;SDS011;13496;51.040;13.680;2023-03-13T08:52:23;1.87;;;1.50;;
25637;SDS011;13496;51.040;13.680;2023-03-13T08:57:26;2.20;;;1.50;;
25637;SDS011;13496;51.040;13.680;2023-03-13T09:02:28;3.53;;;1.60;;
25637;SDS011;13496;51.040;13.680;2023-03-13T09:07:30;1.57;;;1.47;;
25637;SDS011;13496;51.040;13.680;2023-03-13T09:12:31;2.47;;;1.50;;
25637;SDS011;13496;51.040;13.680;2023-03-13T09:17:33;1.77;;;1.40;;
25637;SDS011;13496;51.040;13.680;2023-03-13T09:22:34;1.48;;;1.23;;
25637;SDS011;13496;51.040;13.680;2023-03-13T09:27:36;2.53;;;1.40;;
25637;SDS011;13496;51.040;13.680;2023-03-13T09:32:38;1.67;;;1.52;;
25637;SDS011;13496;51.040;13.680;2023-03-13T09:37:40;2.37;;;1.40;;
25637;SDS011;13496;51.040;13.680;2023-03-13T09:42:45;1.33;;;1.23;;
25637;SDS011;13496;51.040;13.680;2023-03-13T09:47:53;1.52;;;1.27;;
25637;SDS011;13496;51.040;13.680;2023-03-13T09:53:02;1.30;;;1.20;;
25637;SDS011;13496;51.040;13.680;2023-03-13T09:58:24;1.92;;;1.67;;
25637;SDS011;13496;51.040;13.680;2023-03-13T10:03:29;1.70;;;1.60;;
25637;SDS011;13496;51.040;13.680;2023-03-13T10:08:35;1.83;;;1.20;;
25637;SDS011;13496;51.040;13.680;2023-03-13T10:13:47;1.43;;;1.27;;
25637;SDS011;13496;51.040;13.680;2023-03-13T10:18:57;1.20;;;1.10;;
25637;SDS011;13496;51.040;13.680;2023-03-13T10:24:02;1.30;;;1.20;;
25637;SDS011;13496;51.040;13.680;2023-03-13T10:29:18;2.07;;;1.60;;
25637;SDS011;13496;51.040;13.680;2023-03-13T10:34:29;1.80;;;1.30;;
25637;SDS011;13496;51.040;13.680;2023-03-13T10:39:45;1.90;;;1.10;;
25637;SDS011;13496;51.040;13.680;2023-03-13T10:44:46;1.30;;;1.20;;
25637;SDS011;13496;51.040;13.680;2023-03-13T10:49:49;1.23;;;1.03;;
25637;SDS011;13496;51.040;13.680;2023-03-13T10:54:58;1.40;;;1.27;;
25637;SDS011;13496;51.040;13.680;2023-03-13T11:05:28;1.20;;;0.93;;
25637;SDS011;13496;51.040;13.680;2023-03-13T11:10:34;1.77;;;1.40;;
25637;SDS011;13496;51.040;13.680;2023-03-13T11:15:41;1.67;;;1.30;;
25637;SDS011;13496;51.040;13.680;2023-03-13T11:20:51;1.27;;;1.00;;
25637;SDS011;13496;51.040;13.680;2023-03-13T11:31:18;0.90;;;0.88;;
25637;SDS011;13496;51.040;13.680;2023-03-13T11:36:28;1.20;;;1.10;;
25637;SDS011;13496;51.040;13.680;2023-03-13T11:41:48;1.20;;;1.10;;
25637;SDS011;13496;51.040;13.680;2023-03-13T11:52:31;1.07;;;0.97;;
25637;SDS011;13496;51.040;13.680;2023-03-13T12:08:17;1.00;;;0.90;;
25637;SDS011;13496;51.040;13.680;2023-03-13T12:13:34;1.07;;;0.90;;
25637;SDS011;13496;51.040;13.680;2023-03-13T12:18:41;0.98;;;0.90;;
25637;SDS011;13496;51.040;13.680;2023-03-13T12:23:51;1.20;;;1.10;;
25637;SDS011;13496;51.040;13.680;2023-03-13T12:34:54;1.27;;;0.90;;
25637;SDS011;13496;51.040;13.680;2023-03-13T13:01:57;1.07;;;0.97;;
25637;SDS011;13496;51.040;13.680;2023-03-13T13:07:01;0.93;;;0.83;;
25637;SDS011;13496;51.040;13.680;2023-03-13T13:12:20;0.88;;;0.88;;
25637;SDS011;13496;51.040;13.680;2023-03-13T13:32:47;1.13;;;1.00;;
25637;SDS011;13496;51.040;13.680;2023-03-13T13:37:56;1.00;;;0.90;;
25637;SDS011;13496;51.040;13.680;2023-03-13T13:43:21;1.15;;;1.05;;
25637;SDS011;13496;51.040;13.680;2023-03-13T13:48:25;1.48;;;0.90;;
25637;SDS011;13496;51.040;13.680;2023-03-13T13:53:47;0.80;;;0.80;;
25637;SDS011;13496;51.040;13.680;2023-03-13T14:04:26;1.45;;;0.90;;
25637;SDS011;13496;51.040;13.680;2023-03-13T14:14:32;0.93;;;0.93;;
25637;SDS011;13496;51.040;13.680;2023-03-13T14:19:36;0.90;;;0.90;;
25637;SDS011;13496;51.040;13.680;2023-03-13T14:24:47;0.80;;;0.80;;
25637;SDS011;13496;51.040;13.680;2023-03-13T14:30:01;1.00;;;0.70;;
25637;SDS011;13496;51.040;13.680;2023-03-13T14:35:08;0.98;;;0.70;;
25637;SDS011;13496;51.040;13.680;2023-03-13T14:45:28;0.65;;;0.65;;
25637;SDS011;13496;51.040;13.680;2023-03-13T14:50:34;0.70;;;0.70;;
25637;SDS011;13496;51.040;13.680;2023-03-13T14:55:36;0.80;;;0.73;;
25637;SDS011;13496;51.040;13.680;2023-03-13T15:00:41;0.80;;;0.80;;
25637;SDS011;13496;51.040;13.680;2023-03-13T15:05:45;0.90;;;0.90;;
25637;SDS011;13496;51.040;13.680;2023-03-13T15:10:49;1.55;;;0.75;;
25637;SDS011;13496;51.040;13.680;2023-03-13T15:15:51;0.77;;;0.77;;
25637;SDS011;13496;51.040;13.680;2023-03-13T15:20:54;0.82;;;0.82;;
25637;SDS011;13496;51.040;13.680;2023-03-13T15:25:58;0.83;;;0.83;;
25637;SDS011;13496;51.040;13.680;2023-03-13T15:30:59;0.70;;;0.70;;
25637;SDS011;13496;51.040;13.680;2023-03-13T15:36:01;0.77;;;0.77;;
25637;SDS011;13496;51.040;13.680;2023-03-13T15:41:03;0.80;;;0.80;;
25637;SDS011;13496;51.040;13.680;2023-03-13T15:46:08;0.90;;;0.90;;
25637;SDS011;13496;51.040;13.680;2023-03-13T15:51:14;0.70;;;0.70;;
25637;SDS011;13496;51.040;13.680;2023-03-13T15:56:17;1.17;;;1.08;;
25637;SDS011;13496;51.040;13.680;2023-03-13T16:01:21;0.88;;;0.88;;
25637;SDS011;13496;51.040;13.680;2023-03-13T16:06:23;1.73;;;0.80;;
25637;SDS011;13496;51.040;13.680;2023-03-13T16:11:31;0.87;;;0.80;;
25637;SDS011;13496;51.040;13.680;2023-03-13T16:16:33;0.90;;;0.90;;
25637;SDS011;13496;51.040;13.680;2023-03-13T16:21:36;1.73;;;0.93;;
25637;SDS011;13496;51.040;13.680;2023-03-13T16:26:40;1.48;;;0.85;;
25637;SDS011;13496;51.040;13.680;2023-03-13T16:31:42;0.70;;;0.70;;
25637;SDS011;13496;51.040;13.680;2023-03-13T16:36:43;1.77;;;0.83;;
25637;SDS011;13496;51.040;13.680;2023-03-13T16:41:45;1.00;;;1.00;;
25637;SDS011;13496;51.040;13.680;2023-03-13T16:46:47;0.80;;;0.80;;
25637;SDS011;13496;51.040;13.680;2023-03-13T16:51:49;1.63;;;0.80;;
25637;SDS011;13496;51.040;13.680;2023-03-13T16:56:50;0.80;;;0.80;;
25637;SDS011;13496;51.040;13.680;2023-03-13T17:01:52;0.80;;;0.80;;
25637;SDS011;13496;51.040;13.680;2023-03-13T17:06:53;0.80;;;0.80;;
25637;SDS011;13496;51.040;13.680;2023-03-13T17:11:55;1.17;;;1.03;;
25637;SDS011;13496;51.040;13.680;2023-03-13T17:16:57;0.93;;;0.80;;
25637;SDS011;13496;51.040;13.680;2023-03-13T17:21:58;0.90;;;0.90;;
25637;SDS011;13496;51.040;13.680;2023-03-13T17:27:00;1.70;;;0.87;;
25637;SDS011;13496;51.040;13.680;2023-03-13T17:32:02;1.40;;;0.70;;
25637;SDS011;13496;51.040;13.680;2023-03-13T17:37:13;0.70;;;0.70;;
25637;SDS011;13496;51.040;13.680;2023-03-13T17:42:19;1.00;;;0.85;;
25637;SDS011;13496;51.040;13.680;2023-03-13T17:47:22;0.97;;;0.97;;
25637;SDS011;13496;51.040;13.680;2023-03-13T17:52:24;0.90;;;0.90;;
25637;SDS011;13496;51.040;13.680;2023-03-13T17:57:26;1.00;;;0.90;;
25637;SDS011;13496;51.040;13.680;2023-03-13T18:02:28;0.93;;;0.80;;
25637;SDS011;13496;51.040;13.680;2023-03-13T18:07:29;0.98;;;0.90;;
25637;SDS011;13496;51.040;13.680;2023-03-13T18:12:31;1.60;;;0.90;;
25637;SDS011;13496;51.040;13.680;2023-03-13T18:17:34;0.82;;;0.80;;
25637;SDS011;13496;51.040;13.680;2023-03-13T18:22:36;0.70;;;0.70;;
25637;SDS011;13496;51.040;13.680;2023-03-13T18:27:38;0.70;;;0.70;;
25637;SDS011;13496;51.040;13.680;2023-03-13T18:32:40;1.73;;;0.97;;
25637;SDS011;13496;51.040;13.680;2023-03-13T18:37:42;1.00;;;0.90;;
25637;SDS011;13496;51.040;13.680;2023-03-13T18:42:45;1.40;;;1.00;;
25637;SDS011;13496;51.040;13.680;2023-03-13T18:47:47;0.90;;;0.90;;
25637;SDS011;13496;51.040;13.680;2023-03-13T18:52:48;1.10;;;1.00;;
25637;SDS011;13496;51.040;13.680;2023-03-13T18:57:51;1.02;;;0.90;;
25637;SDS011;13496;51.040;13.680;2023-03-13T19:02:53;1.65;;;0.90;;
25637;SDS011;13496;51.040;13.680;2023-03-13T19:07:55;2.00;;;1.00;;
25637;SDS011;13496;51.040;13.680;2023-03-13T19:12:57;0.90;;;0.80;;
25637;SDS011;13496;51.040;13.680;2023-03-13T19:17:59;1.57;;;1.10;;
25637;SDS011;13496;51.040;13.680;2023-03-13T19:23:01;1.63;;;1.00;;
25637;SDS011;13496;51.040;13.680;2023-03-13T19:28:04;1.37;;;0.97;;
25637;SDS011;13496;51.040;13.680;2023-03-13T19:33:09;0.73;;;0.73;;
25637;SDS011;13496;51.040;13.680;2023-03-13T19:38:12;3.17;;;1.20;;
25637;SDS011;13496;51.040;13.680;2023-03-13T19:43:13;2.22;;;1.20;;
25637;SDS011;13496;51.040;13.680;2023-03-13T19:48:15;0.70;;;0.70;;
25637;SDS011;13496;51.040;13.680;2023-03-13T19:53:17;2.25;;;1.10;;
25637;SDS011;13496;51.040;13.680;2023-03-13T19:58:18;1.52;;;1.08;;
25637;SDS011;13496;51.040;13.680;2023-03-13T20:03:20;1.25;;;1.15;;
25637;SDS011;13496;51.040;13.680;2023-03-13T20:08:22;2.63;;;1.30;;
25637;SDS011;13496;51.040;13.680;2023-03-13T20:13:24;1.37;;;1.20;;
25637;SDS011;13496;51.040;13.680;2023-03-13T20:18:25;2.40;;;1.30;;
25637;SDS011;13496;51.040;13.680;2023-03-13T20:23:27;1.45;;;1.10;;
25637;SDS011;13496;51.040;13.680;2023-03-13T20:28:29;3.67;;;1.47;;
25637;SDS011;13496;51.040;13.680;2023-03-13T20:33:31;1.27;;;1.10;;
25637;SDS011;13496;51.040;13.680;2023-03-13T20:38:33;1.33;;;1.07;;
25637;SDS011;13496;51.040;13.680;2023-03-13T20:43:35;1.57;;;1.10;;
25637;SDS011;13496;51.040;13.680;2023-03-13T20:48:37;2.37;;;1.27;;
25637;SDS011;13496;51.040;13.680;2023-03-13T20:53:40;2.00;;;1.20;;
25637;SDS011;13496;51.040;13.680;2023-03-13T20:58:42;1.63;;;1.13;;
25637;SDS011;13496;51.040;13.680;2023-03-13T21:03:44;1.30;;;1.17;;
25637;SDS011;13496;51.040;13.680;2023-03-13T21:08:46;1.10;;;0.90;;
25637;SDS011;13496;51.040;13.680;2023-03-13T21:13:48;2.10;;;1.10;;
25637;SDS011;13496;51.040;13.680;2023-03-13T21:18:50;2.43;;;1.27;;
25637;SDS011;13496;51.040;13.680;2023-03-13T21:23:52;3.38;;;1.20;;
25637;SDS011;13496;51.040;13.680;2023-03-13T21:28:54;1.63;;;1.13;;
25637;SDS011;13496;51.040;13.680;2023-03-13T21:33:56;1.57;;;1.20;;
25637;SDS011;13496;51.040;13.680;2023-03-13T21:38:57;1.27;;;1.17;;
25637;SDS011;13496;51.040;13.680;2023-03-13T21:43:59;1.53;;;1.30;;
25637;SDS011;13496;51.040;13.680;2023-03-13T21:49:02;1.98;;;1.42;;
25637;SDS011;13496;51.040;13.680;2023-03-13T21:54:05;1.63;;;1.13;;
25637;SDS011;13496;51.040;13.680;2023-03-13T21:59:07;1.47;;;1.27;;
25637;SDS011;13496;51.040;13.680;2023-03-13T22:04:09;1.70;;;1.10;;
25637;SDS011;13496;51.040;13.680;2023-03-13T22:09:11;1.30;;;1.20;;
25637;SDS011;13496;51.040;13.680;2023-03-13T22:14:13;1.90;;;1.20;;
25637;SDS011;13496;51.040;13.680;2023-03-13T22:19:15;1.30;;;1.00;;
25637;SDS011;13496;51.040;13.680;2023-03-13T22:24:20;2.67;;;1.10;;
25637;SDS011;13496;51.040;13.680;2023-03-13T22:29:22;2.13;;;1.20;;
25637;SDS011;13496;51.040;13.680;2023-03-13T22:34:24;1.30;;;1.20;;
25637;SDS011;13496;51.040;13.680;2023-03-13T22:39:26;1.48;;;1.30;;
25637;SDS011;13496;51.040;13.680;2023-03-13T22:44:27;1.20;;;1.10;;
25637;SDS011;13496;51.040;13.680;2023-03-13T22:49:29;1.67;;;1.07;;
25637;SDS011;13496;51.040;13.680;2023-03-13T22:54:31;1.75;;;1.13;;
25637;SDS011;13496;51.040;13.680;2023-03-13T22:59:32;1.77;;;1.38;;
25637;SDS011;13496;51.040;13.680;2023-03-13T23:04:34;2.50;;;1.30;;
25637;SDS011;13496;51.040;13.680;2023-03-13T23:09:35;1.50;;;1.40;;
25637;SDS011;13496;51.040;13.680;2023-03-13T23:14:37;1.33;;;1.10;;
25637;SDS011;13496;51.040;13.680;2023-03-13T23:19:39;2.30;;;1.07;;
25637;SDS011;13496;51.040;13.680;2023-03-13T23:24:40;1.33;;;1.20;;
25637;SDS011;13496;51.040;13.680;2023-03-13T23:29:42;1.55;;;1.20;;
25637;SDS011;13496;51.040;13.680;2023-03-13T23:34:44;2.03;;;1.20;;
25637;SDS011;13496;51.040;13.680;2023-03-13T23:39:45;1.67;;;1.48;;
25637;SDS011;13496;51.040;13.680;2023-03-13T23:44:47;1.97;;;1.13;;
25637;SDS011;13496;51.040;13.680;2023-03-13T23:49:50;1.02;;;1.00;;
25637;SDS011;13496;51.040;13.680;2023-03-13T23:54:52;2.10;;;1.33;;
25637;SDS011;13496;51.040;13.680;2023-03-13T23:59:54;1.60;;;1.15;;
